Time;durP1;ratioP1;P1;durP2;ratioP2;P2;SDS_P1;SDS_P2;PMS_P1;PMS_P2;Temp;Humidity;BMP_temperature;BMP_pressure;BME280_temperature;BME280_humidity;BME280_pressure;Samples;Min_cycle;Max_cycle;Signal;HPM_P1;HPM_P2
2023/02/14 00:01:31;;;;;;;16.03;14.47;;;4.90;1.00;;;;;;4996810;28;20571;-77
2023/02/14 00:04:00;;;;;;;15.50;14.00;;;4.90;50.20;;;;;;4998161;28;20488;-76
2023/02/14 00:06:31;;;;;;;17.13;14.93;;;5.00;2.90;;;;;;4999644;28;20558;-78
2023/02/14 00:09:00;;;;;;;15.73;14.13;;;4.90;50.40;;;;;;5001683;28;20453;-76
2023/02/14 00:11:30;;;;;;;15.37;14.03;;;4.90;1.00;;;;;;5003968;28;20477;-76
2023/02/14 00:16:45;;;;;;;16.93;15.23;;;5.00;73.10;;;;;;4998844;28;20476;-75
2023/02/14 00:19:15;;;;;;;16.07;14.67;;;5.00;50.00;;;;;;4995652;28;21070;-76
2023/02/14 00:21:44;;;;;;;16.87;15.27;;;5.00;70.50;;;;;;4989279;28;20568;-77
2023/02/14 00:24:14;;;;;;;17.20;14.90;;;4.90;88.60;;;;;;4994434;28;20470;-76
2023/02/14 00:26:43;;;;;;;18.63;16.70;;;4.90;99.90;;;;;;4993272;28;20461;-77
2023/02/14 00:29:13;;;;;;;16.80;15.00;;;5.00;99.90;;;;;;4994936;28;22043;-76
2023/02/14 00:31:42;;;;;;;19.60;16.70;;;5.00;99.90;;;;;;4990574;28;20485;-77
2023/02/14 00:34:11;;;;;;;19.60;16.57;;;5.00;99.90;;;;;;4994010;28;20469;-77
2023/02/14 00:36:40;;;;;;;18.50;16.60;;;5.00;99.90;;;;;;4992950;28;20475;-75
2023/02/14 00:39:11;;;;;;;20.03;17.73;;;5.00;99.90;;;;;;4992929;28;21114;-75
2023/02/14 00:41:39;;;;;;;18.33;16.43;;;5.00;99.90;;;;;;4992925;28;20577;-76
2023/02/14 00:44:09;;;;;;;18.93;17.03;;;5.00;99.10;;;;;;4993611;28;21328;-76
2023/02/14 00:46:38;;;;;;;18.60;16.70;;;4.90;99.90;;;;;;4993107;28;20500;-75
2023/02/14 00:49:06;;;;;;;17.70;15.90;;;4.90;99.90;;;;;;4991929;28;20466;-76
2023/02/14 00:51:34;;;;;;;21.13;18.93;;;4.90;99.90;;;;;;5007704;28;20508;-76
2023/02/14 00:54:04;;;;;;;18.57;16.83;;;5.00;99.90;;;;;;4993369;28;20484;-75
2023/02/14 00:56:32;;;;;;;19.57;17.67;;;5.00;99.90;;;;;;4994411;28;20465;-76
2023/02/14 00:59:00;;;;;;;23.53;19.60;;;5.00;97.70;;;;;;4994263;28;20564;-76
2023/02/14 01:01:29;;;;;;;21.17;19.07;;;5.00;99.90;;;;;;4991663;28;20485;-77
2023/02/14 01:03:57;;;;;;;21.27;18.90;;;4.90;99.90;;;;;;4990122;28;20482;-77
2023/02/14 01:06:25;;;;;;;20.53;18.43;;;4.90;99.90;;;;;;4993995;28;20460;-77
2023/02/14 01:08:54;;;;;;;23.50;18.60;;;4.90;99.90;;;;;;4994183;28;20464;-73
2023/02/14 01:11:24;;;;;;;21.90;17.93;;;4.90;99.90;;;;;;4999080;28;20512;-77
2023/02/14 01:13:55;;;;;;;22.03;19.07;;;4.90;99.90;;;;;;4996078;28;20474;-75
2023/02/14 01:16:26;;;;;;;20.50;17.73;;;4.90;99.90;;;;;;4993761;28;20485;-76
2023/02/14 01:18:54;;;;;;;22.30;18.47;;;4.90;99.90;;;;;;4998175;28;20468;-76
2023/02/14 01:21:24;;;;;;;22.03;17.97;;;4.90;99.90;;;;;;4999222;28;21446;-77
2023/02/14 01:23:55;;;;;;;19.33;17.33;;;4.90;99.90;;;;;;4997817;28;20472;-76
2023/02/14 01:26:25;;;;;;;19.77;16.20;;;5.00;1.00;;;;;;4996659;28;20472;-76
2023/02/14 01:28:54;;;;;;;18.20;16.27;;;4.90;1.00;;;;;;4993325;28;20449;-76
2023/02/14 01:31:24;;;;;;;19.07;17.07;;;4.80;1.00;;;;;;4990089;28;20643;-76
2023/02/14 01:33:53;;;;;;;22.37;18.23;;;4.60;1.00;;;;;;4995782;28;20537;-76
2023/02/14 01:36:24;;;;;;;17.57;15.93;;;4.50;1.00;;;;;;4990716;28;21264;-76
2023/02/14 01:38:54;;;;;;;20.35;18.35;;;4.50;99.90;;;;;;4995129;28;20485;-77
2023/02/14 01:41:23;;;;;;;19.60;16.50;;;4.50;49.30;;;;;;4991951;28;20691;-75
2023/02/14 01:43:59;;;;;;;22.33;18.90;;;4.60;15.10;;;;;;4994793;28;21009;-78
2023/02/14 01:46:28;;;;;;;18.83;16.83;;;4.60;99.90;;;;;;4989107;28;20460;-76
2023/02/14 01:49:01;;;;;;;18.20;16.30;;;4.60;99.90;;;;;;4995247;28;20462;-76
2023/02/14 01:51:31;;;;;;;18.80;16.50;;;4.60;99.90;;;;;;4995222;28;20741;-76
2023/02/14 01:53:59;;;;;;;16.27;14.50;;;4.60;99.90;;;;;;4990561;28;20514;-77
2023/02/14 01:56:33;;;;;;;15.83;14.13;;;4.60;99.90;;;;;;4992713;28;20461;-75
2023/02/14 01:59:06;;;;;;;16.17;14.10;;;4.50;99.90;;;;;;4992559;28;20838;-78
2023/02/14 02:01:34;;;;;;;15.47;13.87;;;4.40;99.90;;;;;;4987262;28;20470;-76
2023/02/14 02:04:08;;;;;;;15.32;13.93;;;4.50;99.90;;;;;;4995003;28;20461;-75
2023/02/14 02:06:38;;;;;;;15.97;14.23;;;4.50;99.90;;;;;;4992357;28;20198;-75
2023/02/14 02:09:12;;;;;;;16.53;14.93;;;4.50;99.90;;;;;;4995714;28;20450;-77
2023/02/14 02:11:40;;;;;;;14.80;13.43;;;4.50;99.90;;;;;;4996591;28;20449;-75
2023/02/14 02:14:14;;;;;;;15.70;14.20;;;4.50;99.90;;;;;;4993492;28;20556;-77
2023/02/14 02:17:20;;;;;;;15.67;14.30;;;4.50;81.90;;;;;;4991833;28;21542;-76
2023/02/14 02:20:30;;;;;;;14.10;12.80;;;4.60;22.10;;;;;;4989777;28;20492;-75
2023/02/14 02:23:47;;;;;;;15.87;13.97;;;4.50;1.00;;;;;;4990463;28;20312;-78
2023/02/14 02:26:48;;;;;;;16.00;14.40;;;4.50;9.80;;;;;;4946121;28;20552;-77
2023/02/14 02:29:43;;;;;;;16.60;14.80;;;4.40;39.80;;;;;;4972903;28;20476;-78
2023/02/14 02:33:00;;;;;;;16.10;14.40;;;4.40;99.90;;;;;;4990576;28;20465;-76
2023/02/14 02:35:50;;;;;;;15.88;14.50;;;4.40;95.80;;;;;;4991267;28;20465;-77
2023/02/14 02:38:30;;;;;;;14.83;13.33;;;4.40;99.90;;;;;;4992037;28;21172;-77
2023/02/14 02:41:04;;;;;;;15.53;13.53;;;4.50;99.90;;;;;;4995350;28;20802;-78
2023/02/14 02:43:44;;;;;;;17.97;15.67;;;4.30;99.90;;;;;;4994019;28;20476;-77
2023/02/14 02:53:01;;;;;;;17.27;15.70;;;4.40;99.90;;;;;;4988669;28;20461;-75
2023/02/14 02:55:06;;;;;;;17.80;15.97;;;4.40;99.90;;;;;;4990914;28;20458;-76
2023/02/14 02:57:39;;;;;;;17.20;15.40;;;4.30;99.90;;;;;;4993703;28;20441;-76
2023/02/14 03:00:13;;;;;;;18.73;16.73;;;4.30;1.00;;;;;;4993711;28;21199;-76
2023/02/14 03:05:31;;;;;;;19.37;16.70;;;4.50;1.00;;;;;;4992763;28;20986;-75
2023/02/14 03:08:01;;;;;;;17.70;15.87;;;4.60;1.00;;;;;;4996104;28;20548;-77
2023/02/14 03:10:34;;;;;;;20.70;17.83;;;4.60;99.90;;;;;;4995292;28;20465;-75
2023/02/14 03:13:23;;;;;;;19.25;16.33;;;4.60;99.90;;;;;;4996071;28;20803;-77
2023/02/14 03:16:41;;;;;;;21.27;17.37;;;4.50;99.90;;;;;;4996263;28;20991;-76
2023/02/14 03:22:43;;;;;;;21.50;19.27;;;4.60;99.90;;;;;;4992945;28;20572;-77
2023/02/14 03:25:25;;;;;;;22.40;19.03;;;4.60;99.90;;;;;;4990377;28;20462;-77
2023/02/14 03:28:00;;;;;;;23.50;20.27;;;4.60;99.90;;;;;;4994332;28;21149;-76
2023/02/14 03:30:40;;;;;;;23.40;19.83;;;4.60;99.90;;;;;;4993022;28;20511;-76
2023/02/14 03:33:17;;;;;;;20.37;18.20;;;4.60;99.90;;;;;;4994338;28;20484;-77
2023/02/14 03:35:54;;;;;;;25.13;18.73;;;4.60;99.90;;;;;;4995253;28;20464;-76
2023/02/14 03:38:28;;;;;;;24.53;18.87;;;4.50;99.90;;;;;;4995132;28;20449;-77
2023/02/14 03:41:01;;;;;;;22.33;17.90;;;4.60;99.90;;;;;;4996337;28;20457;-75
2023/02/14 03:43:32;;;;;;;25.50;18.33;;;4.60;99.90;;;;;;4997642;28;22690;-76
2023/02/14 03:46:07;;;;;;;21.57;19.23;;;4.60;1.00;;;;;;4991925;28;20453;-77
2023/02/14 03:48:36;;;;;;;21.17;18.27;;;4.50;1.00;;;;;;4995051;28;20516;-77
2023/02/14 03:51:08;;;;;;;19.35;16.38;;;4.40;1.00;;;;;;4991510;28;20460;-75
2023/02/14 03:53:40;;;;;;;22.57;17.57;;;4.40;1.00;;;;;;4998805;28;20251;-76
2023/02/14 03:56:15;;;;;;;18.77;16.70;;;4.20;1.00;;;;;;4995835;28;21036;-77
2023/02/14 03:58:47;;;;;;;18.33;16.13;;;4.20;1.00;;;;;;5001122;28;20226;-76
2023/02/14 04:01:20;;;;;;;19.00;15.50;;;4.20;1.00;;;;;;4998366;28;20567;-76
2023/02/14 04:03:50;;;;;;;21.83;16.88;;;4.10;1.00;;;;;;5001691;28;20459;-76
2023/02/14 04:06:19;;;;;;;22.40;16.92;;;4.10;1.00;;;;;;5000136;28;20252;-77
2023/02/14 04:08:47;;;;;;;17.35;15.45;;;4.10;1.00;;;;;;4997215;28;20198;-75
2023/02/14 04:11:16;;;;;;;17.70;15.90;;;4.00;1.00;;;;;;4992733;28;20248;-75
2023/02/14 04:13:45;;;;;;;18.38;16.48;;;4.00;1.00;;;;;;4989878;28;20465;-77
2023/02/14 04:16:13;;;;;;;18.42;15.43;;;4.00;1.00;;;;;;4989841;28;21178;-76
2023/02/14 04:21:27;;;;;;;17.15;15.23;;;3.80;1.00;;;;;;4989138;28;20458;-75
2023/02/14 04:23:55;;;;;;;17.25;15.07;;;3.70;1.00;;;;;;4990096;28;20233;-76
2023/02/14 04:26:25;;;;;;;18.05;15.38;;;3.60;1.00;;;;;;4993852;28;20261;-76
2023/02/14 04:28:53;;;;;;;17.38;15.48;;;3.60;1.00;;;;;;4992623;28;20646;-76
2023/02/14 04:31:21;;;;;;;19.00;17.05;;;3.60;1.00;;;;;;4988634;28;20291;-76
2023/02/14 04:33:50;;;;;;;19.45;15.60;;;3.60;1.00;;;;;;4994840;28;20289;-77
2023/02/14 04:36:18;;;;;;;16.95;15.15;;;3.60;1.00;;;;;;4994646;28;20237;-76
2023/02/14 04:38:46;;;;;;;17.08;14.98;;;3.70;1.00;;;;;;4992719;28;20297;-76
2023/02/14 04:41:14;;;;;;;16.48;14.30;;;3.70;1.00;;;;;;4996508;28;20689;-77
2023/02/14 04:43:44;;;;;;;17.00;15.30;;;3.60;1.00;;;;;;4998953;28;20247;-77
2023/02/14 04:46:13;;;;;;;17.92;15.70;;;3.60;1.00;;;;;;4995132;28;20730;-76
2023/02/14 04:48:41;;;;;;;16.23;14.50;;;3.60;1.00;;;;;;4994778;28;20213;-76
2023/02/14 04:51:09;;;;;;;15.77;14.07;;;3.60;1.00;;;;;;4993611;28;20191;-76
2023/02/14 04:53:39;;;;;;;16.00;14.15;;;3.70;1.00;;;;;;4995770;28;20548;-77
2023/02/14 04:56:07;;;;;;;15.50;13.93;;;3.60;1.00;;;;;;4996664;28;20688;-77
2023/02/14 04:58:37;;;;;;;14.77;13.25;;;3.60;1.00;;;;;;4996519;28;21433;-76
2023/02/14 05:01:06;;;;;;;17.17;13.90;;;3.60;1.00;;;;;;4993764;28;20285;-76
2023/02/14 05:03:34;;;;;;;16.23;14.48;;;3.60;1.00;;;;;;4996412;28;20580;-78
2023/02/14 05:06:02;;;;;;;17.10;13.90;;;3.50;1.00;;;;;;4992864;28;20263;-77
2023/02/14 05:08:30;;;;;;;16.80;15.10;;;3.50;1.00;;;;;;4997658;28;20229;-77
2023/02/14 05:10:58;;;;;;;16.67;15.07;;;3.50;1.00;;;;;;4995595;28;22018;-77
2023/02/14 05:13:27;;;;;;;16.60;14.80;;;3.40;1.00;;;;;;4997667;28;20305;-78
2023/02/14 05:15:56;;;;;;;18.60;13.90;;;3.30;1.00;;;;;;4994244;28;20203;-77
2023/02/14 05:18:26;;;;;;;18.23;15.23;;;3.10;1.00;;;;;;4995528;28;20306;-77
2023/02/14 05:20:55;;;;;;;16.58;14.50;;;3.30;1.00;;;;;;4994736;28;20198;-76
2023/02/14 05:23:23;;;;;;;15.93;14.33;;;3.30;1.00;;;;;;5005956;28;20229;-75
2023/02/14 05:25:52;;;;;;;19.77;17.73;;;3.30;1.00;;;;;;4995499;28;20486;-77
2023/02/14 05:28:20;;;;;;;18.40;15.82;;;3.20;99.90;;;;;;4995307;28;20939;-77
2023/02/14 05:30:50;;;;;;;17.33;15.15;;;3.50;1.00;;;;;;4993000;28;20202;-77
2023/02/14 05:33:19;;;;;;;16.27;14.25;;;3.60;99.90;;;;;;4993140;28;20219;-76
2023/02/14 05:35:48;;;;;;;16.50;14.85;;;3.60;83.90;;;;;;4989437;28;20207;-77
2023/02/14 05:38:16;;;;;;;17.00;15.23;;;3.70;1.00;;;;;;4992192;28;20361;-76
2023/02/14 05:40:45;;;;;;;17.20;15.37;;;3.70;49.50;;;;;;4990183;28;20199;-76
2023/02/14 05:43:13;;;;;;;19.33;15.37;;;3.80;1.00;;;;;;4996008;28;20485;-76
2023/02/14 05:45:41;;;;;;;16.77;15.07;;;3.70;1.00;;;;;;4995764;28;20489;-76
2023/02/14 05:48:09;;;;;;;16.55;14.63;;;3.70;1.00;;;;;;4998809;28;20667;-76
2023/02/14 05:50:37;;;;;;;19.73;16.30;;;3.70;1.00;;;;;;4998687;28;20202;-77
2023/02/14 05:53:07;;;;;;;16.98;14.90;;;3.70;1.00;;;;;;4994600;28;20478;-75
2023/02/14 05:55:35;;;;;;;19.00;15.35;;;3.60;1.00;;;;;;4995528;28;20686;-76
2023/02/14 05:58:03;;;;;;;16.85;15.15;;;3.70;1.00;;;;;;4996849;28;20218;-76
2023/02/14 06:00:32;;;;;;;14.00;12.55;;;3.70;1.00;;;;;;4990344;28;20206;-75
2023/02/14 06:03:00;;;;;;;19.13;16.13;;;3.50;1.00;;;;;;4990211;28;20261;-75
2023/02/14 06:05:28;;;;;;;18.05;15.40;;;3.50;1.00;;;;;;4998519;28;20199;-74
2023/02/14 06:07:56;;;;;;;14.73;13.40;;;3.40;1.00;;;;;;4999783;28;20217;-75
2023/02/14 06:10:26;;;;;;;15.77;14.18;;;3.40;1.00;;;;;;4994400;28;20210;-75
2023/02/14 06:12:54;;;;;;;15.80;14.13;;;3.40;1.00;;;;;;4996253;28;20241;-75
2023/02/14 06:15:22;;;;;;;22.70;14.43;;;3.40;1.00;;;;;;4990174;28;20206;-75
2023/02/14 06:17:54;;;;;;;18.00;14.30;;;3.40;1.00;;;;;;4992783;28;20234;-76
2023/02/14 06:20:24;;;;;;;15.25;13.73;;;3.40;1.00;;;;;;4998138;28;20221;-76
2023/02/14 06:22:53;;;;;;;17.55;15.65;;;3.50;1.00;;;;;;4997687;28;20219;-76
2023/02/14 06:25:22;;;;;;;18.33;15.65;;;3.50;1.00;;;;;;4993555;28;20199;-77
2023/02/14 06:27:55;;;;;;;18.30;15.90;;;3.40;1.00;;;;;;4999316;28;20702;-76
2023/02/14 06:30:23;;;;;;;20.27;15.10;;;3.30;1.00;;;;;;4994596;28;20513;-77
2023/02/14 06:32:52;;;;;;;18.95;17.00;;;3.40;27.60;;;;;;4994760;28;20645;-77
2023/02/14 06:35:20;;;;;;;17.85;15.27;;;3.60;67.80;;;;;;4994206;28;20203;-75
2023/02/14 06:37:48;;;;;;;18.67;16.75;;;3.60;47.20;;;;;;4997630;28;20213;-76
2023/02/14 06:40:18;;;;;;;20.02;16.50;;;3.60;70.80;;;;;;4994208;28;20230;-76
2023/02/14 06:42:46;;;;;;;23.20;17.30;;;3.70;96.10;;;;;;4996237;28;20773;-76
2023/02/14 06:45:16;;;;;;;17.83;16.02;;;3.70;69.70;;;;;;4995546;28;20268;-75
2023/02/14 06:47:45;;;;;;;17.13;15.30;;;3.70;1.00;;;;;;4996846;28;20237;-77
2023/02/14 06:50:13;;;;;;;16.17;14.63;;;3.70;1.00;;;;;;4997977;28;21075;-76
2023/02/14 06:52:43;;;;;;;18.88;15.32;;;3.60;1.00;;;;;;4996752;28;20312;-76
2023/02/14 06:55:12;;;;;;;18.85;14.90;;;3.60;1.00;;;;;;4994346;28;20909;-77
2023/02/14 06:57:40;;;;;;;19.63;17.70;;;3.60;1.00;;;;;;4996730;28;20229;-75
2023/02/14 07:00:10;;;;;;;19.08;16.55;;;3.70;43.00;;;;;;4994600;28;20449;-76
2023/02/14 07:02:39;;;;;;;17.55;15.73;;;3.70;1.00;;;;;;4991733;28;21901;-78
2023/02/14 07:05:08;;;;;;;18.45;15.50;;;3.70;1.00;;;;;;4994899;28;20690;-78
2023/02/14 07:07:36;;;;;;;17.15;15.35;;;3.70;1.00;;;;;;4994812;28;20214;-75
2023/02/14 07:10:05;;;;;;;18.10;14.70;;;3.70;1.00;;;;;;4996714;28;20194;-77
2023/02/14 07:12:33;;;;;;;18.83;16.88;;;3.80;1.00;;;;;;4989301;28;20226;-76
2023/02/14 07:15:01;;;;;;;18.40;16.33;;;3.80;1.00;;;;;;4992714;28;20253;-75
2023/02/14 07:17:29;;;;;;;17.45;15.60;;;3.80;4.70;;;;;;4991656;28;20244;-75
2023/02/14 07:19:59;;;;;;;18.80;16.80;;;3.80;49.50;;;;;;4996147;28;20198;-75
2023/02/14 07:22:27;;;;;;;16.60;14.90;;;3.90;30.30;;;;;;4998408;28;20261;-75
2023/02/14 07:24:57;;;;;;;18.70;16.77;;;3.90;99.90;;;;;;4989661;28;20698;-75
2023/02/14 07:27:25;;;;;;;16.65;14.95;;;3.90;96.20;;;;;;4995825;28;20761;-75
2023/02/14 07:29:53;;;;;;;16.67;15.00;;;3.90;1.00;;;;;;4995847;28;20203;-76
2023/02/14 07:32:22;;;;;;;16.83;15.07;;;4.00;1.00;;;;;;4994263;28;20218;-75
2023/02/14 07:34:51;;;;;;;19.05;16.35;;;4.00;1.00;;;;;;4999316;28;20481;-76
2023/02/14 07:37:20;;;;;;;18.58;16.65;;;4.10;1.00;;;;;;4999963;28;20186;-76
2023/02/14 07:39:49;;;;;;;19.77;17.30;;;4.10;36.10;;;;;;5002584;28;20205;-76
2023/02/14 07:42:17;;;;;;;18.87;16.87;;;4.10;99.90;;;;;;4995260;28;20450;-77
2023/02/14 07:44:45;;;;;;;20.70;18.57;;;4.30;99.90;;;;;;4998189;28;20469;-77
2023/02/14 07:47:13;;;;;;;20.13;15.00;;;4.50;72.10;;;;;;4999147;28;20511;-76
2023/02/14 07:49:42;;;;;;;18.00;16.20;;;4.60;1.00;;;;;;4993775;28;20453;-77
2023/02/14 07:52:10;;;;;;;19.87;17.70;;;4.70;1.00;;;;;;4996604;28;20493;-77
2023/02/14 07:54:39;;;;;;;18.53;16.63;;;4.90;1.00;;;;;;4994341;28;20535;-77
2023/02/14 07:57:07;;;;;;;20.97;16.83;;;5.10;1.00;;;;;;4995881;28;21041;-77
2023/02/14 07:59:36;;;;;;;20.03;17.90;;;5.30;1.00;;;;;;4994704;28;20484;-76
2023/02/14 08:02:04;;;;;;;20.30;18.20;;;5.50;1.00;;;;;;4997421;28;20468;-75
2023/02/14 08:04:32;;;;;;;22.43;18.57;;;5.70;1.00;;;;;;5001183;28;20544;-77
2023/02/14 08:07:03;;;;;;;20.27;17.00;;;5.80;1.00;;;;;;5001023;28;20466;-76
2023/02/14 08:09:31;;;;;;;18.17;16.23;;;6.10;1.00;;;;;;4999176;28;20501;-76
2023/02/14 08:14:46;;;;;;;19.50;17.60;;;6.50;1.00;;;;;;5000271;28;20475;-76
2023/02/14 08:17:14;;;;;;;20.13;17.77;;;6.60;1.00;;;;;;4997465;28;20450;-77
2023/02/14 08:19:43;;;;;;;22.07;19.10;;;6.70;99.90;;;;;;5001009;28;20493;-76
2023/02/14 08:22:11;;;;;;;19.17;17.23;;;6.90;99.90;;;;;;4996875;28;20441;-76
2023/02/14 08:24:39;;;;;;;20.40;17.37;;;7.10;99.90;;;;;;5000631;28;20512;-77
2023/02/14 08:27:08;;;;;;;18.27;16.47;;;7.20;99.90;;;;;;4998492;28;20566;-78
2023/02/14 08:29:37;;;;;;;19.93;17.93;;;7.50;99.90;;;;;;5001698;28;20467;-76
2023/02/14 08:32:05;;;;;;;19.83;17.80;;;7.60;99.90;;;;;;5000426;28;20454;-77
2023/02/14 08:34:34;;;;;;;20.57;17.90;;;7.90;99.90;;;;;;4999446;28;20586;-77
2023/02/14 08:37:02;;;;;;;21.03;19.00;;;8.20;99.90;;;;;;4999994;28;21494;-77
2023/02/14 08:39:31;;;;;;;17.87;16.07;;;8.50;99.90;;;;;;5000948;28;20453;-78
2023/02/14 08:42:00;;;;;;;21.70;16.63;;;8.70;99.90;;;;;;4997102;28;20478;-77
2023/02/14 08:44:29;;;;;;;21.87;19.60;;;9.10;99.90;;;;;;4999314;28;20600;-77
2023/02/14 08:46:58;;;;;;;20.23;16.53;;;9.40;99.90;;;;;;5001503;28;21200;-76
2023/02/14 08:49:26;;;;;;;20.53;18.47;;;9.80;99.90;;;;;;4999523;28;20491;-77
2023/02/14 08:51:54;;;;;;;19.53;17.53;;;10.10;99.90;;;;;;4996213;28;20533;-77
2023/02/14 08:54:22;;;;;;;19.07;17.10;;;10.50;99.90;;;;;;4995467;28;20482;-77
2023/02/14 08:56:51;;;;;;;20.60;18.47;;;10.50;99.90;;;;;;4999520;28;20485;-77
2023/02/14 08:59:19;;;;;;;19.30;17.40;;;10.90;99.90;;;;;;4998350;28;20549;-76
2023/02/14 09:01:48;;;;;;;18.47;16.47;;;11.00;99.90;;;;;;4998651;28;21134;-76
2023/02/14 09:04:16;;;;;;;18.67;16.67;;;11.20;99.90;;;;;;4997860;28;21016;-78
2023/02/14 09:06:44;;;;;;;18.73;16.77;;;11.40;99.90;;;;;;4998379;28;20552;-77
2023/02/14 09:09:13;;;;;;;17.97;16.07;;;11.60;99.90;;;;;;4996767;28;21147;-78
2023/02/14 09:11:41;;;;;;;18.77;17.03;;;11.80;99.90;;;;;;4997255;28;20457;-77
2023/02/14 09:14:09;;;;;;;18.23;16.43;;;11.70;99.90;;;;;;4994884;28;20463;-76
2023/02/14 09:16:37;;;;;;;17.60;16.00;;;11.60;99.90;;;;;;4997014;28;20548;-76
2023/02/14 09:19:08;;;;;;;17.93;16.30;;;11.70;99.90;;;;;;4997643;28;20524;-76
2023/02/14 09:21:36;;;;;;;19.57;17.57;;;11.70;99.90;;;;;;4996532;28;20466;-77
2023/02/14 09:24:04;;;;;;;19.70;17.73;;;11.80;99.90;;;;;;4999007;28;20499;-77
2023/02/14 09:26:35;;;;;;;18.83;16.90;;;11.90;99.90;;;;;;4997293;28;20575;-78
2023/02/14 09:29:03;;;;;;;18.10;16.60;;;12.10;99.90;;;;;;4996045;28;20453;-76
2023/02/14 09:31:31;;;;;;;20.60;18.47;;;12.30;99.90;;;;;;4995782;28;20462;-76
2023/02/14 09:36:47;;;;;;;19.13;17.33;;;13.20;99.90;;;;;;4997670;28;22599;-77
2023/02/14 09:39:15;;;;;;;17.97;16.17;;;13.90;99.90;;;;;;4994783;28;20825;-78
2023/02/14 09:42:08;;;;;;;18.60;16.93;;;14.40;99.90;;;;;;4995711;28;20468;-77
2023/02/14 09:44:42;;;;;;;17.73;15.67;;;15.20;99.90;;;;;;4996297;28;20507;-77
2023/02/14 09:47:19;;;;;;;16.53;15.07;;;15.40;99.90;;;;;;4998540;28;21010;-77
2023/02/14 09:49:48;;;;;;;16.53;14.83;;;15.70;99.90;;;;;;4996353;28;20450;-77
2023/02/14 09:52:20;;;;;;;18.53;16.93;;;15.50;99.90;;;;;;4999258;28;20457;-77
2023/02/14 09:54:56;;;;;;;18.73;16.87;;;15.50;99.90;;;;;;4997351;28;20459;-79
2023/02/14 09:57:35;;;;;;;18.37;16.50;;;15.90;99.90;;;;;;4995757;28;20522;-77
2023/02/14 10:00:17;;;;;;;20.97;18.97;;;16.10;99.90;;;;;;4996042;28;20991;-77
2023/02/14 10:02:58;;;;;;;17.73;15.93;;;15.80;99.90;;;;;;4998817;28;20483;-76
2023/02/14 10:05:29;;;;;;;17.63;15.73;;;16.20;99.90;;;;;;4999865;28;20490;-77
2023/02/14 10:08:06;;;;;;;17.07;15.43;;;16.40;99.90;;;;;;4996642;28;20448;-78
2023/02/14 10:10:40;;;;;;;16.80;15.30;;;16.90;99.90;;;;;;4994166;28;20466;-77
2023/02/14 10:13:18;;;;;;;17.97;16.27;;;16.90;99.90;;;;;;4998238;28;20482;-77
2023/02/14 10:15:49;;;;;;;19.23;17.13;;;17.30;99.90;;;;;;4995023;28;20483;-77
2023/02/14 10:18:21;;;;;;;17.60;16.00;;;17.80;99.90;;;;;;4997778;28;20460;-77
2023/02/14 10:20:54;;;;;;;17.57;15.97;;;18.30;99.90;;;;;;4996262;28;20453;-76
2023/02/14 10:23:32;;;;;;;19.97;17.83;;;18.70;99.90;;;;;;4995969;28;20469;-78
2023/02/14 10:26:02;;;;;;;18.37;16.70;;;19.40;99.90;;;;;;4996535;28;20554;-79
2023/02/14 10:28:32;;;;;;;17.53;15.93;;;19.60;99.90;;;;;;5009610;28;20454;-78
2023/02/14 10:31:15;;;;;;;17.67;16.17;;;20.10;99.90;;;;;;4988430;28;20536;-76
2023/02/14 10:33:49;;;;;;;17.17;15.87;;;20.50;99.90;;;;;;4989673;28;21136;-79
2023/02/14 10:36:29;;;;;;;17.90;16.17;;;21.30;99.90;;;;;;4975989;28;20486;-78
2023/02/14 10:39:07;;;;;;;16.50;15.20;;;21.80;99.90;;;;;;4991448;28;20449;-78
2023/02/14 10:41:44;;;;;;;18.07;16.47;;;22.20;99.90;;;;;;4992422;28;20464;-77
2023/02/14 10:44:24;;;;;;;17.40;15.80;;;22.80;99.90;;;;;;4992138;28;20480;-77
2023/02/14 10:46:59;;;;;;;17.77;16.10;;;22.80;99.90;;;;;;4990680;28;20484;-78
2023/02/14 10:49:37;;;;;;;17.00;15.50;;;23.50;99.90;;;;;;4992444;28;20472;-78
2023/02/14 10:52:14;;;;;;;17.67;16.27;;;23.90;99.90;;;;;;4994369;28;20449;-77
2023/02/14 10:54:46;;;;;;;19.13;17.53;;;25.20;99.90;;;;;;4989086;28;20450;-78
2023/02/14 10:57:18;;;;;;;19.70;18.30;;;25.90;99.90;;;;;;4994032;28;20458;-78
2023/02/14 10:59:52;;;;;;;20.17;18.63;;;25.60;99.90;;;;;;4995432;28;20458;-78
2023/02/14 11:02:25;;;;;;;19.63;17.93;;;26.00;99.90;;;;;;4993641;28;20528;-77
2023/02/14 11:04:54;;;;;;;18.43;16.93;;;26.40;99.90;;;;;;4996680;28;20515;-77
2023/02/14 11:07:23;;;;;;;17.80;16.40;;;25.50;99.90;;;;;;4995136;28;20535;-78
2023/02/14 11:09:53;;;;;;;18.97;17.63;;;25.00;99.90;;;;;;4993679;28;20522;-78
2023/02/14 11:12:39;;;;;;;19.67;18.00;;;23.80;99.90;;;;;;4993475;28;20524;-78
2023/02/14 11:15:27;;;;;;;19.57;17.90;;;23.20;99.90;;;;;;4988497;28;20513;-78
2023/02/14 11:18:15;;;;;;;18.30;17.00;;;23.90;99.90;;;;;;4999627;28;20874;-79
2023/02/14 11:20:43;;;;;;;18.77;17.37;;;25.10;99.90;;;;;;4996187;28;20465;-77
2023/02/14 11:23:19;;;;;;;19.07;17.67;;;25.80;99.90;;;;;;4996643;28;20470;-78
2023/02/14 11:25:55;;;;;;;17.63;16.33;;;26.10;99.90;;;;;;4995928;28;20457;-78
2023/02/14 11:28:23;;;;;;;17.70;16.40;;;26.70;99.90;;;;;;4996276;28;20499;-78
2023/02/14 11:30:52;;;;;;;17.63;16.13;;;27.30;99.90;;;;;;4999785;28;20511;-78
2023/02/14 11:33:33;;;;;;;16.47;15.17;;;27.70;99.90;;;;;;4995228;28;20557;-79
2023/02/14 11:36:03;;;;;;;16.33;15.23;;;27.40;99.90;;;;;;4997730;28;20966;-79
2023/02/14 11:38:35;;;;;;;14.90;13.90;;;27.60;99.90;;;;;;4993895;28;20493;-78
2023/02/14 11:41:06;;;;;;;15.77;14.47;;;26.60;99.90;;;;;;4996031;28;20445;-79
2023/02/14 11:43:36;;;;;;;16.13;15.03;;;24.10;99.90;;;;;;4990185;28;20855;-78
2023/02/14 11:46:14;;;;;;;17.20;15.80;;;22.00;99.90;;;;;;4992522;28;20448;-77
2023/02/14 11:48:58;;;;;;;16.20;14.70;;;20.20;99.90;;;;;;4993447;28;20487;-77
2023/02/14 11:51:29;;;;;;;14.87;13.83;;;18.90;95.80;;;;;;4991976;28;21012;-77
2023/02/14 11:54:03;;;;;;;15.90;14.63;;;18.10;90.70;;;;;;4979842;28;20502;-78
2023/02/14 11:56:52;;;;;;;16.03;14.90;;;17.80;89.40;;;;;;4991257;28;20446;-79
2023/02/14 11:59:29;;;;;;;16.27;14.87;;;17.60;85.40;;;;;;4989000;28;20457;-77
2023/02/14 12:02:01;;;;;;;15.17;13.97;;;17.20;78.70;;;;;;4997375;28;20574;-78
2023/02/14 12:04:34;;;;;;;16.67;15.47;;;16.90;76.20;;;;;;4999023;28;20493;-76
2023/02/14 12:07:21;;;;;;;15.77;14.67;;;16.70;73.20;;;;;;4995365;28;20469;-76
2023/02/14 12:10:17;;;;;;;16.97;15.47;;;16.30;69.80;;;;;;4999687;28;20568;-74
2023/02/14 12:12:56;;;;;;;15.03;13.63;;;16.40;72.60;;;;;;4999562;28;20484;-77
2023/02/14 12:15:29;;;;;;;16.13;14.97;;;16.40;73.10;;;;;;4999423;28;20462;-78
2023/02/14 12:18:19;;;;;;;16.27;14.97;;;16.50;74.60;;;;;;4998868;28;20800;-78
2023/02/14 12:20:53;;;;;;;16.40;15.10;;;16.40;74.40;;;;;;4998983;28;20696;-77
2023/02/14 12:23:27;;;;;;;16.10;14.90;;;16.40;75.80;;;;;;4999432;28;21062;-79
2023/02/14 12:26:01;;;;;;;16.40;14.77;;;16.40;76.90;;;;;;5001135;28;20452;-79
2023/02/14 12:28:37;;;;;;;16.13;14.53;;;16.30;74.90;;;;;;4998189;28;21034;-79
2023/02/14 12:31:11;;;;;;;14.77;13.47;;;16.40;77.00;;;;;;5002685;28;20998;-78
2023/02/14 12:33:40;;;;;;;15.03;13.97;;;16.50;81.80;;;;;;4998415;28;20873;-79
2023/02/14 12:36:24;;;;;;;15.67;14.57;;;16.60;82.10;;;;;;4996914;28;20457;-79
2023/02/14 12:38:59;;;;;;;15.43;14.20;;;16.50;82.90;;;;;;4999266;28;20475;-79
2023/02/14 12:41:40;;;;;;;15.93;14.73;;;16.50;82.70;;;;;;4999605;28;20917;-79
2023/02/14 12:44:18;;;;;;;13.83;12.87;;;16.50;83.30;;;;;;4998201;28;20463;-79
2023/02/14 12:46:59;;;;;;;13.60;12.60;;;16.50;82.50;;;;;;4996856;28;20473;-78
2023/02/14 12:50:03;;;;;;;16.20;14.90;;;16.60;85.00;;;;;;4998745;28;20984;-77
2023/02/14 12:53:01;;;;;;;14.73;13.50;;;16.60;86.20;;;;;;5002192;28;20547;-72
2023/02/14 12:55:45;;;;;;;14.90;13.80;;;16.70;87.70;;;;;;4995531;28;20469;-80
2023/02/14 12:58:25;;;;;;;15.23;14.13;;;16.60;86.10;;;;;;5002110;28;20460;-75
2023/02/14 13:01:09;;;;;;;16.37;15.10;;;16.60;86.20;;;;;;5001798;28;20495;-77
2023/02/14 13:03:55;;;;;;;12.10;11.40;;;16.60;86.80;;;;;;5007516;28;20487;-79
2023/02/14 13:06:29;;;;;;;12.57;11.77;;;16.70;86.10;;;;;;5034054;28;20496;-78
2023/02/14 13:09:12;;;;;;;12.73;11.93;;;16.70;90.10;;;;;;5004454;28;20453;-78
2023/02/14 13:11:52;;;;;;;11.70;10.93;;;16.60;97.20;;;;;;5000368;28;21111;-78
2023/02/14 13:14:37;;;;;;;12.37;11.37;;;16.60;98.10;;;;;;5005432;28;20889;-77
2023/02/14 13:17:19;;;;;;;11.83;11.23;;;16.70;90.70;;;;;;5005631;28;20502;-79
2023/02/14 13:19:55;;;;;;;12.57;11.77;;;16.70;90.50;;;;;;5001573;28;20476;-77
2023/02/14 13:22:26;;;;;;;12.90;12.20;;;16.60;87.00;;;;;;5003642;28;20456;-78
2023/02/14 13:24:58;;;;;;;12.60;11.63;;;16.50;86.40;;;;;;5003002;28;20541;-77
2023/02/14 13:27:31;;;;;;;12.03;11.30;;;16.50;87.20;;;;;;4999353;28;20484;-78